Time;durP1;ratioP1;P1;durP2;ratioP2;P2;SDS_P1;SDS_P2;PMS_P1;PMS_P2;Temp;Humidity;BMP_temperature;BMP_pressure;BME280_temperature;BME280_humidity;BME280_pressure;Samples;Min_cycle;Max_cycle;Signal;HPM_P1;HPM_P2
2021/09/24 00:01:44;;;;;;;4.30;2.30;;;15.50;97.30;;;;;;5074965;28;20202;-79
2021/09/24 00:04:12;;;;;;;6.27;2.10;;;15.50;97.30;;;;;;5081405;28;20198;-79
2021/09/24 00:06:42;;;;;;;5.90;2.00;;;15.50;97.30;;;;;;5083083;28;20974;-80
2021/09/24 00:09:09;;;;;;;4.27;2.07;;;15.50;97.30;;;;;;5089884;28;20423;-77
2021/09/24 00:11:35;;;;;;;4.67;1.93;;;15.50;97.30;;;;;;5094706;28;21023;-77
2021/09/24 00:14:02;;;;;;;7.40;2.50;;;15.50;97.30;;;;;;5088615;28;20425;-79
2021/09/24 00:16:28;;;;;;;5.80;2.10;;;15.50;97.30;;;;;;5074577;28;20413;-78
2021/09/24 00:18:53;;;;;;;7.07;2.33;;;15.50;97.30;;;;;;5087231;28;20758;-78
2021/09/24 00:21:19;;;;;;;4.77;2.30;;;15.50;97.30;;;;;;5093699;28;20181;-78
2021/09/24 00:23:44;;;;;;;8.80;2.47;;;15.50;97.30;;;;;;5073602;28;20195;-80
2021/09/24 00:26:10;;;;;;;8.60;2.17;;;15.50;97.30;;;;;;5073807;28;20181;-78
2021/09/24 00:28:35;;;;;;;5.50;1.93;;;15.50;97.30;;;;;;5074863;28;20183;-79
2021/09/24 00:31:01;;;;;;;13.53;3.13;;;15.50;97.30;;;;;;5088699;28;20645;-78
2021/09/24 00:33:27;;;;;;;3.63;2.30;;;15.50;97.30;;;;;;5076723;28;20221;-81
2021/09/24 00:35:56;;;;;;;5.73;2.50;;;15.40;97.30;;;;;;5089369;28;20196;-79
2021/09/24 00:38:24;;;;;;;9.03;2.70;;;15.40;97.30;;;;;;5083096;28;20424;-79
2021/09/24 00:40:50;;;;;;;5.57;2.63;;;15.40;97.30;;;;;;5081558;28;20425;-79
2021/09/24 00:43:16;;;;;;;3.83;2.30;;;15.40;97.30;;;;;;5095276;28;20447;-79
2021/09/24 00:45:42;;;;;;;6.30;2.77;;;15.40;97.30;;;;;;5093779;28;20472;-79
2021/09/24 00:48:07;;;;;;;5.00;2.27;;;15.30;97.30;;;;;;5085145;28;20182;-78
2021/09/24 00:50:33;;;;;;;5.63;2.03;;;15.30;97.30;;;;;;5088213;28;20606;-79
2021/09/24 00:52:59;;;;;;;12.20;2.27;;;15.20;97.30;;;;;;5092601;28;20247;-78
2021/09/24 00:55:26;;;;;;;9.40;2.70;;;15.20;97.30;;;;;;5079146;28;20413;-78
2021/09/24 00:57:52;;;;;;;9.90;3.40;;;15.10;97.30;;;;;;5082707;28;20183;-77
2021/09/24 01:00:18;;;;;;;12.03;3.83;;;15.10;97.30;;;;;;5088500;28;20436;-76
2021/09/24 01:02:45;;;;;;;5.83;2.63;;;15.10;97.30;;;;;;5076446;28;20352;-78
2021/09/24 01:05:12;;;;;;;7.50;3.13;;;15.00;97.30;;;;;;5093176;28;20412;-77
2021/09/24 01:07:40;;;;;;;3.33;2.47;;;15.00;97.30;;;;;;5093261;28;20418;-78
2021/09/24 01:10:07;;;;;;;12.95;3.35;;;14.90;97.30;;;;;;5082550;28;20411;-78
2021/09/24 01:12:34;;;;;;;7.57;2.77;;;14.90;97.30;;;;;;5096318;28;20194;-78
2021/09/24 01:15:02;;;;;;;3.40;2.47;;;14.90;97.30;;;;;;5082469;28;20467;-78
2021/09/24 01:17:28;;;;;;;8.70;2.33;;;14.80;97.30;;;;;;5093167;28;20495;-79
2021/09/24 01:19:53;;;;;;;8.40;2.70;;;14.80;97.30;;;;;;5082489;28;20432;-78
2021/09/24 01:22:19;;;;;;;11.43;2.10;;;14.80;97.30;;;;;;5088345;28;20203;-79
2021/09/24 01:24:45;;;;;;;5.73;2.40;;;14.80;97.30;;;;;;5089288;28;20178;-79
2021/09/24 01:27:10;;;;;;;10.67;3.17;;;14.80;97.30;;;;;;5079876;28;20175;-79
2021/09/24 01:29:36;;;;;;;9.77;2.33;;;14.70;97.30;;;;;;5096205;28;20679;-77
2021/09/24 01:32:02;;;;;;;7.23;3.13;;;14.60;97.30;;;;;;5096701;28;20231;-76
2021/09/24 01:34:27;;;;;;;7.00;2.70;;;14.60;97.30;;;;;;5086851;28;20598;-80
2021/09/24 01:36:53;;;;;;;8.73;2.90;;;14.60;97.30;;;;;;5089759;28;20404;-80
2021/09/24 01:39:19;;;;;;;14.93;2.30;;;14.60;97.30;;;;;;5074998;28;20198;-78
2021/09/24 01:41:47;;;;;;;16.03;3.03;;;14.60;97.30;;;;;;5056923;28;20411;-78
2021/09/24 01:44:12;;;;;;;12.87;3.13;;;14.50;97.30;;;;;;5057392;28;20235;-79
2021/09/24 01:46:39;;;;;;;9.03;2.60;;;14.50;97.30;;;;;;5080121;28;20762;-78
2021/09/24 01:49:06;;;;;;;21.37;3.53;;;14.50;97.30;;;;;;5080240;28;20190;-79
2021/09/24 01:51:36;;;;;;;7.13;3.27;;;14.50;97.30;;;;;;5094168;28;20468;-80
2021/09/24 01:54:03;;;;;;;7.53;2.70;;;14.50;97.30;;;;;;5081535;28;20468;-79
2021/09/24 01:56:30;;;;;;;9.90;2.50;;;14.60;97.30;;;;;;5097165;28;20421;-80
2021/09/24 01:58:56;;;;;;;8.23;2.13;;;14.60;97.30;;;;;;5082013;28;20430;-80
2021/09/24 02:01:21;;;;;;;8.17;2.37;;;14.50;97.30;;;;;;5076389;28;20409;-80
2021/09/24 02:03:47;;;;;;;3.47;2.73;;;14.50;97.30;;;;;;5081299;28;20255;-79
2021/09/24 02:06:13;;;;;;;10.17;2.87;;;14.50;97.30;;;;;;5096888;28;20179;-78
2021/09/24 02:08:39;;;;;;;7.03;2.63;;;14.50;97.30;;;;;;5096209;28;20204;-79
2021/09/24 02:11:07;;;;;;;11.00;2.30;;;14.50;97.30;;;;;;5082181;28;20457;-79
2021/09/24 02:13:33;;;;;;;6.00;2.20;;;14.50;97.30;;;;;;5078722;28;20199;-80
2021/09/24 02:15:59;;;;;;;2.63;1.67;;;14.50;97.30;;;;;;5090099;28;20417;-80
2021/09/24 02:18:25;;;;;;;8.93;2.50;;;14.40;97.30;;;;;;5085694;28;20423;-78
2021/09/24 02:20:51;;;;;;;8.30;2.73;;;14.40;97.30;;;;;;5082071;28;20187;-79
2021/09/24 02:23:16;;;;;;;8.40;2.50;;;14.40;97.30;;;;;;5077695;28;20210;-78
2021/09/24 02:25:42;;;;;;;11.07;2.90;;;14.40;97.30;;;;;;5095623;28;20178;-79
2021/09/24 02:28:07;;;;;;;7.97;2.57;;;14.40;97.30;;;;;;5089760;28;20183;-78
2021/09/24 02:30:33;;;;;;;9.50;2.53;;;14.40;97.30;;;;;;5075496;28;20194;-78
2021/09/24 02:32:59;;;;;;;5.30;2.90;;;14.40;97.30;;;;;;5089468;28;20293;-79
2021/09/24 02:35:24;;;;;;;8.50;3.00;;;14.40;97.30;;;;;;5079430;28;20296;-79
2021/09/24 02:37:50;;;;;;;7.23;2.53;;;14.40;97.30;;;;;;5083955;28;20170;-79
2021/09/24 02:40:15;;;;;;;8.50;2.50;;;14.40;97.30;;;;;;5085610;28;20186;-79
2021/09/24 02:42:41;;;;;;;7.57;3.67;;;14.40;97.30;;;;;;5089373;28;20191;-78
2021/09/24 02:45:08;;;;;;;5.60;2.20;;;14.50;97.30;;;;;;5095770;28;20304;-80
2021/09/24 02:47:33;;;;;;;8.53;3.07;;;14.50;97.30;;;;;;5095755;28;20601;-78
2021/09/24 02:49:59;;;;;;;8.13;3.03;;;14.50;97.30;;;;;;5078244;28;20464;-78
2021/09/24 02:52:24;;;;;;;9.83;3.10;;;14.50;97.30;;;;;;5074068;28;20276;-79
2021/09/24 02:54:50;;;;;;;8.03;3.30;;;14.50;97.30;;;;;;5074437;28;20183;-80
2021/09/24 02:57:15;;;;;;;11.27;2.93;;;14.50;97.30;;;;;;5074842;28;20232;-78
2021/09/24 02:59:41;;;;;;;8.60;3.17;;;14.50;97.30;;;;;;5074350;28;20171;-80
2021/09/24 03:02:07;;;;;;;9.30;2.50;;;14.50;97.30;;;;;;5074541;28;20408;-79
2021/09/24 03:04:32;;;;;;;10.77;3.00;;;14.50;97.30;;;;;;5074893;28;20199;-80
2021/09/24 03:06:58;;;;;;;11.87;3.37;;;14.50;97.30;;;;;;5075165;28;20668;-79
2021/09/24 03:09:23;;;;;;;6.10;2.93;;;14.50;97.30;;;;;;5074982;28;20254;-78
2021/09/24 03:11:49;;;;;;;6.37;3.33;;;14.50;97.30;;;;;;5073396;28;20203;-79
2021/09/24 03:14:15;;;;;;;7.43;3.50;;;14.50;97.30;;;;;;5073324;28;20292;-78
2021/09/24 03:16:42;;;;;;;9.00;2.83;;;14.50;97.30;;;;;;5073677;28;20521;-78
2021/09/24 03:19:08;;;;;;;8.13;3.10;;;14.50;97.30;;;;;;5074323;28;20244;-78
2021/09/24 03:21:34;;;;;;;12.27;3.33;;;14.50;97.30;;;;;;5073734;28;20414;-78
2021/09/24 03:23:59;;;;;;;7.77;3.10;;;14.50;97.30;;;;;;5074245;28;20434;-78
2021/09/24 03:26:25;;;;;;;9.80;2.77;;;14.50;97.30;;;;;;5074591;28;20178;-79
2021/09/24 03:28:51;;;;;;;4.67;2.40;;;14.50;97.30;;;;;;5074280;28;20217;-79
2021/09/24 03:31:17;;;;;;;3.30;1.73;;;14.50;97.30;;;;;;5073861;28;20453;-79
2021/09/24 03:33:43;;;;;;;5.70;2.13;;;14.40;97.30;;;;;;5074809;28;20267;-78
2021/09/24 03:36:08;;;;;;;4.80;2.37;;;14.40;97.30;;;;;;5074509;28;20167;-79
2021/09/24 03:38:34;;;;;;;3.20;1.60;;;14.40;97.30;;;;;;5074728;28;20405;-79
2021/09/24 03:40:59;;;;;;;4.60;1.83;;;14.40;97.30;;;;;;5075887;28;20171;-80
2021/09/24 03:43:25;;;;;;;14.13;1.90;;;14.30;97.30;;;;;;5074997;28;20199;-79
2021/09/24 03:45:51;;;;;;;6.33;2.20;;;14.30;97.30;;;;;;5067062;28;20262;-80
2021/09/24 03:48:17;;;;;;;8.03;2.17;;;14.20;97.30;;;;;;5057556;28;20263;-79
2021/09/24 03:50:43;;;;;;;7.07;2.70;;;14.20;97.30;;;;;;5074515;28;20229;-79
2021/09/24 03:53:09;;;;;;;16.23;2.30;;;14.20;97.30;;;;;;5075410;28;20434;-79
2021/09/24 03:55:35;;;;;;;4.20;1.70;;;14.10;97.30;;;;;;5073800;28;20417;-81
2021/09/24 03:58:00;;;;;;;14.37;2.30;;;14.10;97.30;;;;;;5073975;28;20275;-79
2021/09/24 04:00:26;;;;;;;5.70;2.10;;;14.10;97.30;;;;;;5073000;28;20372;-78
2021/09/24 04:02:52;;;;;;;6.23;2.80;;;14.10;97.30;;;;;;5073009;28;20575;-80
2021/09/24 04:05:18;;;;;;;9.57;2.70;;;14.10;97.30;;;;;;5073456;28;20554;-80
2021/09/24 04:07:43;;;;;;;4.23;2.20;;;14.10;97.30;;;;;;5074557;28;20421;-80
2021/09/24 04:10:09;;;;;;;6.20;2.27;;;14.10;97.30;;;;;;5074043;28;20705;-77
2021/09/24 04:12:35;;;;;;;9.20;2.23;;;14.10;97.30;;;;;;5075151;28;20199;-80
2021/09/24 04:15:02;;;;;;;9.50;2.50;;;14.10;97.30;;;;;;5074444;28;20805;-80
2021/09/24 04:17:27;;;;;;;7.73;2.07;;;14.00;97.30;;;;;;5073685;28;20520;-79
2021/09/24 04:19:53;;;;;;;8.90;2.67;;;14.00;97.30;;;;;;5074220;28;20456;-81
2021/09/24 04:22:19;;;;;;;5.40;2.17;;;14.00;97.30;;;;;;5073877;28;20274;-81
2021/09/24 04:24:44;;;;;;;6.50;2.50;;;14.00;97.30;;;;;;5073206;28;20558;-80
2021/09/24 04:27:10;;;;;;;7.47;2.47;;;14.00;97.30;;;;;;5074235;28;20663;-81
2021/09/24 04:29:36;;;;;;;11.80;2.20;;;14.00;97.30;;;;;;5073440;28;20317;-80
2021/09/24 04:32:01;;;;;;;15.70;2.43;;;14.00;97.30;;;;;;5072726;28;20662;-80
2021/09/24 04:34:27;;;;;;;8.00;2.10;;;14.00;97.30;;;;;;5067250;28;20203;-81
2021/09/24 04:36:52;;;;;;;6.87;2.50;;;13.90;97.30;;;;;;5055106;28;20186;-81
2021/09/24 04:39:18;;;;;;;10.20;2.37;;;13.80;97.30;;;;;;5086930;28;20620;-80
2021/09/24 04:41:43;;;;;;;5.87;2.33;;;13.80;97.30;;;;;;5073462;28;20175;-80
2021/09/24 04:44:09;;;;;;;9.43;2.40;;;13.70;97.30;;;;;;5073301;28;20732;-80
2021/09/24 04:46:35;;;;;;;6.83;2.10;;;13.70;97.30;;;;;;5072938;28;20649;-80
2021/09/24 04:49:01;;;;;;;11.70;2.77;;;13.70;97.30;;;;;;5074005;28;20178;-80
2021/09/24 04:51:26;;;;;;;6.03;1.93;;;13.70;97.30;;;;;;5073693;28;20210;-80
2021/09/24 04:53:52;;;;;;;7.80;2.07;;;13.70;97.30;;;;;;5072999;28;20456;-80
2021/09/24 04:56:17;;;;;;;7.70;3.03;;;13.70;97.30;;;;;;5073523;28;20183;-81
2021/09/24 04:58:43;;;;;;;4.47;2.80;;;13.70;97.30;;;;;;5066572;28;20278;-80
2021/09/24 05:01:09;;;;;;;4.57;2.20;;;13.60;97.30;;;;;;5065283;28;20210;-80
2021/09/24 05:03:35;;;;;;;6.47;2.40;;;13.60;97.30;;;;;;5065137;28;20293;-80
2021/09/24 05:06:01;;;;;;;16.83;2.70;;;13.60;97.30;;;;;;5065796;28;20457;-80
2021/09/24 05:08:26;;;;;;;10.30;2.40;;;13.60;97.30;;;;;;5053070;28;20271;-80
2021/09/24 05:10:52;;;;;;;10.53;2.00;;;13.60;97.30;;;;;;5053698;28;20207;-80
2021/09/24 05:13:17;;;;;;;10.10;1.93;;;13.60;97.30;;;;;;5053935;28;20208;-80
2021/09/24 05:15:43;;;;;;;9.43;2.87;;;13.60;97.30;;;;;;5053456;28;20180;-80
2021/09/24 05:18:09;;;;;;;7.67;2.37;;;13.50;97.30;;;;;;5054004;28;20189;-81
2021/09/24 05:20:34;;;;;;;3.57;2.37;;;13.50;97.30;;;;;;5053342;28;20196;-81
2021/09/24 05:23:00;;;;;;;7.27;2.40;;;13.50;97.30;;;;;;5053614;28;20191;-81
2021/09/24 05:25:26;;;;;;;5.93;2.40;;;13.40;97.30;;;;;;5054422;28;20267;-80
2021/09/24 05:27:52;;;;;;;11.17;2.50;;;13.40;97.30;;;;;;5055333;28;20206;-81
2021/09/24 05:30:18;;;;;;;9.10;3.47;;;13.40;97.30;;;;;;5055822;28;20191;-82
2021/09/24 05:32:44;;;;;;;15.53;3.17;;;13.40;97.30;;;;;;5058243;28;20474;-82
2021/09/24 05:35:10;;;;;;;12.17;3.07;;;13.40;97.30;;;;;;5057158;28;20517;-81
2021/09/24 05:37:36;;;;;;;11.27;2.40;;;13.40;97.30;;;;;;5057048;28;20184;-80
2021/09/24 05:40:03;;;;;;;5.33;2.30;;;13.40;97.30;;;;;;5058086;28;20771;-80
2021/09/24 05:42:28;;;;;;;14.30;2.90;;;13.40;97.30;;;;;;5056435;28;20426;-80
2021/09/24 05:44:55;;;;;;;5.73;2.57;;;13.40;97.30;;;;;;5065666;28;20468;-80
2021/09/24 05:47:21;;;;;;;14.67;3.40;;;13.40;97.30;;;;;;5074531;28;20645;-80
2021/09/24 05:49:46;;;;;;;6.63;2.47;;;13.40;97.30;;;;;;5058562;28;20428;-80
2021/09/24 05:52:12;;;;;;;9.77;3.60;;;13.40;97.30;;;;;;5054248;28;20278;-82
2021/09/24 05:54:37;;;;;;;7.53;2.30;;;13.40;97.30;;;;;;5055000;28;20263;-81
2021/09/24 05:57:04;;;;;;;11.43;2.80;;;13.40;97.30;;;;;;5055333;28;20175;-81
2021/09/24 05:59:29;;;;;;;13.60;2.93;;;13.40;97.30;;;;;;5055271;28;20226;-81
2021/09/24 06:01:55;;;;;;;8.93;2.47;;;13.40;97.30;;;;;;5055399;28;20840;-80
2021/09/24 06:04:20;;;;;;;9.33;2.70;;;13.40;97.30;;;;;;5055843;28;20220;-82
2021/09/24 06:06:47;;;;;;;7.60;2.47;;;13.40;97.30;;;;;;5055787;28;20187;-80
2021/09/24 06:09:12;;;;;;;5.13;2.30;;;13.40;97.30;;;;;;5057162;28;20180;-81
2021/09/24 06:11:38;;;;;;;6.60;2.17;;;13.50;97.30;;;;;;5055259;28;20476;-80
2021/09/24 06:14:04;;;;;;;13.17;2.43;;;13.50;97.30;;;;;;5055420;28;20200;-81
2021/09/24 06:16:30;;;;;;;8.23;2.60;;;13.50;97.30;;;;;;5057259;28;20523;-80
2021/09/24 06:18:56;;;;;;;5.47;2.43;;;13.60;97.30;;;;;;5055901;28;20426;-81
2021/09/24 06:21:22;;;;;;;6.23;2.47;;;13.70;97.30;;;;;;5055743;28;20431;-80
2021/09/24 06:23:48;;;;;;;6.73;2.90;;;13.80;97.30;;;;;;5056432;28;20677;-80
2021/09/24 06:26:13;;;;;;;7.43;2.17;;;13.80;97.30;;;;;;5055953;28;20184;-80
2021/09/24 06:28:39;;;;;;;8.87;2.57;;;13.90;97.30;;;;;;5056181;28;20457;-79
2021/09/24 06:31:05;;;;;;;8.17;2.33;;;13.90;97.30;;;;;;5055299;28;20252;-78
2021/09/24 06:33:31;;;;;;;4.23;2.63;;;13.90;97.30;;;;;;5056913;28;20203;-80
2021/09/24 06:35:56;;;;;;;13.80;3.40;;;14.00;97.30;;;;;;5056111;28;20831;-80
2021/09/24 06:38:23;;;;;;;12.90;3.53;;;14.00;97.30;;;;;;5057052;28;20176;-80
2021/09/24 06:40:48;;;;;;;19.13;3.00;;;14.10;97.30;;;;;;5055652;28;20187;-80
2021/09/24 06:43:14;;;;;;;8.70;2.77;;;14.10;97.30;;;;;;5055001;28;20450;-81
2021/09/24 06:45:40;;;;;;;2.87;2.00;;;14.10;97.30;;;;;;5055152;28;20847;-80
2021/09/24 06:48:06;;;;;;;2.83;2.53;;;14.20;97.30;;;;;;5056634;28;20548;-80
2021/09/24 06:50:33;;;;;;;12.80;3.20;;;14.20;97.30;;;;;;5063254;28;20206;-80
2021/09/24 06:52:59;;;;;;;5.00;2.67;;;14.30;97.30;;;;;;5075131;28;21023;-81
2021/09/24 06:55:25;;;;;;;11.93;3.60;;;14.40;97.30;;;;;;5075287;28;20808;-80
2021/09/24 06:57:55;;;;;;;4.43;2.30;;;14.50;97.30;;;;;;5074864;28;20420;-79
2021/09/24 07:00:21;;;;;;;5.67;2.30;;;14.60;97.30;;;;;;5075053;28;20198;-80
2021/09/24 07:02:47;;;;;;;3.87;2.20;;;14.60;97.30;;;;;;5074808;28;20496;-80
2021/09/24 07:05:12;;;;;;;8.83;2.40;;;14.70;97.30;;;;;;5074792;28;20417;-80
2021/09/24 07:07:39;;;;;;;6.23;3.10;;;14.80;97.30;;;;;;5075350;28;20185;-80
2021/09/24 07:10:05;;;;;;;5.67;2.57;;;14.90;97.30;;;;;;5076256;28;20179;-80
2021/09/24 07:12:31;;;;;;;8.90;2.83;;;15.00;97.30;;;;;;5074429;28;20476;-80
2021/09/24 07:14:56;;;;;;;10.07;3.07;;;15.10;97.30;;;;;;5076048;28;20413;-80
2021/09/24 07:17:22;;;;;;;9.70;3.93;;;15.10;97.30;;;;;;5074790;28;20174;-79
2021/09/24 07:19:48;;;;;;;6.17;3.57;;;15.20;97.30;;;;;;5074916;28;20171;-85
2021/09/24 07:22:15;;;;;;;6.10;3.63;;;15.20;97.30;;;;;;5074960;28;20197;-79
2021/09/24 07:24:41;;;;;;;7.10;2.60;;;15.30;97.30;;;;;;5074329;28;20195;-81
2021/09/24 07:27:07;;;;;;;6.30;3.23;;;15.30;97.30;;;;;;5075322;28;20498;-80
2021/09/24 07:29:32;;;;;;;6.10;2.30;;;15.30;97.30;;;;;;5073797;28;20214;-76
2021/09/24 07:31:59;;;;;;;7.70;2.50;;;15.30;97.30;;;;;;5073869;28;20206;-80
2021/09/24 07:34:25;;;;;;;3.70;2.00;;;15.30;97.30;;;;;;5075122;28;20279;-77
2021/09/24 07:36:51;;;;;;;8.23;2.50;;;15.30;97.30;;;;;;5074535;28;20743;-81
2021/09/24 07:39:17;;;;;;;5.40;2.87;;;15.30;97.30;;;;;;5073875;28;20501;-80
2021/09/24 07:41:42;;;;;;;5.73;2.13;;;15.30;97.30;;;;;;5074015;28;20183;-81
2021/09/24 07:44:08;;;;;;;4.50;2.03;;;15.40;97.30;;;;;;5072589;28;20473;-81
2021/09/24 07:46:35;;;;;;;8.10;3.60;;;15.50;97.30;;;;;;5073612;28;20179;-80
2021/09/24 07:49:01;;;;;;;6.33;2.43;;;15.60;97.30;;;;;;5064370;28;20539;-79
2021/09/24 07:51:27;;;;;;;3.30;2.30;;;15.60;97.30;;;;;;5053891;28;20458;-80
2021/09/24 07:53:53;;;;;;;4.67;2.20;;;15.70;97.30;;;;;;5052690;28;20435;-81
2021/09/24 07:56:18;;;;;;;8.13;1.87;;;15.80;97.30;;;;;;5053691;28;20172;-80
2021/09/24 07:58:44;;;;;;;4.73;2.00;;;15.90;97.30;;;;;;5052011;28;20225;-81
2021/09/24 08:01:10;;;;;;;5.77;2.00;;;15.90;97.30;;;;;;5052548;28;20175;-81
2021/09/24 08:03:37;;;;;;;7.10;2.40;;;16.00;97.30;;;;;;5052677;28;20539;-79
2021/09/24 08:06:03;;;;;;;5.63;1.80;;;16.10;97.30;;;;;;5051978;28;20673;-81
2021/09/24 08:08:29;;;;;;;3.93;2.10;;;16.10;97.30;;;;;;5051923;28;20436;-80
2021/09/24 08:10:55;;;;;;;2.47;2.00;;;16.10;97.30;;;;;;5052113;28;20513;-83
2021/09/24 08:13:21;;;;;;;1.80;1.70;;;16.20;97.30;;;;;;5052078;28;20226;-81
2021/09/24 08:15:46;;;;;;;4.17;1.87;;;16.20;97.30;;;;;;5053509;28;20464;-81
2021/09/24 08:18:14;;;;;;;3.47;2.13;;;16.20;97.30;;;;;;5052771;28;21016;-79
2021/09/24 08:20:41;;;;;;;4.70;1.83;;;16.20;97.30;;;;;;5052883;28;20179;-81
2021/09/24 08:23:07;;;;;;;3.70;2.03;;;16.30;97.30;;;;;;5052475;28;20979;-81
2021/09/24 08:25:33;;;;;;;8.00;2.17;;;16.30;97.30;;;;;;5052425;28;20410;-82
2021/09/24 08:27:59;;;;;;;1.80;1.60;;;16.40;97.30;;;;;;5051034;28;20419;-81
2021/09/24 08:30:25;;;;;;;4.10;1.63;;;16.50;97.30;;;;;;5051158;28;20551;-82
2021/09/24 08:32:52;;;;;;;2.20;1.60;;;16.60;97.30;;;;;;5053173;28;21022;-81
2021/09/24 08:35:21;;;;;;;4.13;1.70;;;16.70;97.30;;;;;;5052000;28;20414;-80
2021/09/24 08:37:49;;;;;;;2.63;1.87;;;16.80;97.30;;;;;;5051867;28;20414;-80
2021/09/24 08:40:17;;;;;;;4.90;1.90;;;16.90;97.30;;;;;;5051925;28;20414;-79
2021/09/24 08:42:43;;;;;;;1.80;1.40;;;17.00;97.30;;;;;;5050581;28;20503;-81
2021/09/24 08:45:23;;;;;;;1.40;1.37;;;17.00;97.10;;;;;;5050541;28;20570;-81
2021/09/24 08:48:10;;;;;;;3.73;1.90;;;17.10;97.30;;;;;;5051001;28;20406;-80
2021/09/24 08:50:37;;;;;;;4.17;1.93;;;17.10;97.30;;;;;;5052433;28;20406;-77
2021/09/24 08:53:04;;;;;;;1.90;1.47;;;17.10;96.70;;;;;;5052164;28;20434;-80
2021/09/24 08:55:30;;;;;;;5.70;1.50;;;17.00;97.10;;;;;;5051623;28;20513;-80
2021/09/24 08:57:56;;;;;;;3.40;1.83;;;17.00;97.30;;;;;;5050725;28;20936;-78
2021/09/24 09:00:23;;;;;;;4.37;1.60;;;16.90;97.30;;;;;;5052558;28;20666;-79
2021/09/24 09:02:56;;;;;;;2.90;1.30;;;16.90;97.10;;;;;;5052096;28;20473;-78
2021/09/24 09:05:23;;;;;;;1.67;1.40;;;16.90;97.10;;;;;;5055718;28;20430;-82
2021/09/24 09:07:49;;;;;;;2.10;1.57;;;17.00;97.20;;;;;;5056054;28;20414;-79
2021/09/24 09:10:17;;;;;;;3.83;1.90;;;17.00;97.00;;;;;;5055876;28;20907;-77
2021/09/24 09:12:43;;;;;;;3.97;1.60;;;17.00;96.80;;;;;;5056838;28;20282;-79
2021/09/24 09:15:14;;;;;;;1.73;1.33;;;17.00;97.00;;;;;;5055719;28;20868;-79
2021/09/24 09:17:43;;;;;;;2.70;1.60;;;17.00;96.40;;;;;;5055740;28;20412;-79
2021/09/24 09:20:30;;;;;;;2.00;1.73;;;17.00;96.60;;;;;;5055353;28;20457;-78
2021/09/24 09:22:58;;;;;;;3.43;1.70;;;17.00;96.90;;;;;;5055700;28;20434;-78
2021/09/24 09:25:26;;;;;;;2.23;1.50;;;17.10;97.00;;;;;;5055558;28;20951;-79
2021/09/24 09:27:54;;;;;;;1.80;1.40;;;17.30;96.20;;;;;;5054204;28;20790;-79
2021/09/24 09:30:20;;;;;;;2.90;1.50;;;17.30;95.70;;;;;;5056615;28;20767;-79
2021/09/24 09:33:15;;;;;;;5.20;1.90;;;17.40;95.80;;;;;;5054802;28;21057;-80
2021/09/24 09:36:06;;;;;;;2.23;1.80;;;17.30;95.40;;;;;;5054319;28;20406;-81
2021/09/24 09:38:36;;;;;;;2.60;1.60;;;17.30;95.40;;;;;;5055765;28;20410;-80
2021/09/24 09:41:11;;;;;;;7.27;1.60;;;17.30;96.10;;;;;;5056285;28;20402;-81
2021/09/24 09:43:46;;;;;;;2.00;1.40;;;17.40;96.60;;;;;;5053163;28;20540;-78
2021/09/24 09:46:22;;;;;;;1.60;1.50;;;17.70;96.20;;;;;;5053870;28;20467;-79
2021/09/24 09:49:08;;;;;;;5.53;1.93;;;17.80;95.30;;;;;;5054002;28;20410;-85
2021/09/24 09:51:37;;;;;;;2.73;1.80;;;17.80;94.90;;;;;;5056903;28;20961;-78
2021/09/24 09:54:03;;;;;;;2.33;1.50;;;17.80;95.70;;;;;;5054921;28;20940;-80
2021/09/24 09:56:46;;;;;;;2.60;1.53;;;17.80;95.60;;;;;;5053531;28;20422;-80
2021/09/24 09:59:30;;;;;;;4.60;1.63;;;17.70;95.40;;;;;;5053511;28;20815;-80
2021/09/24 10:02:14;;;;;;;2.17;1.43;;;17.70;94.90;;;;;;5054209;28;20419;-80
2021/09/24 10:04:43;;;;;;;6.07;2.10;;;17.70;95.10;;;;;;5053154;28;20434;-80
2021/09/24 10:07:18;;;;;;;1.83;1.30;;;17.80;95.10;;;;;;5052834;28;20422;-81
2021/09/24 10:09:45;;;;;;;7.53;2.10;;;17.80;94.70;;;;;;5053222;28;20438;-79
2021/09/24 10:12:23;;;;;;;2.17;1.40;;;17.80;93.80;;;;;;5053744;28;20976;-79
2021/09/24 10:14:51;;;;;;;7.33;1.63;;;17.80;93.30;;;;;;5051640;28;20418;-82
2021/09/24 10:17:19;;;;;;;3.17;1.60;;;17.90;94.10;;;;;;5053328;28;20545;-80
2021/09/24 10:19:46;;;;;;;1.83;1.57;;;18.00;94.40;;;;;;5055031;28;20421;-79
2021/09/24 10:22:12;;;;;;;3.77;1.90;;;18.00;93.70;;;;;;5054102;28;20514;-78
2021/09/24 10:24:42;;;;;;;3.97;1.77;;;18.00;93.50;;;;;;5052271;28;20983;-79
2021/09/24 10:27:15;;;;;;;2.30;1.53;;;18.00;93.70;;;;;;5052162;28;20422;-78
2021/09/24 10:29:44;;;;;;;5.87;1.30;;;17.90;93.80;;;;;;5054791;28;20417;-80
2021/09/24 10:32:22;;;;;;;4.73;1.63;;;17.90;94.30;;;;;;5053047;28;20496;-79
2021/09/24 10:34:55;;;;;;;3.43;1.30;;;17.80;94.80;;;;;;5055095;28;20415;-79
2021/09/24 10:37:21;;;;;;;6.60;1.40;;;17.80;94.30;;;;;;5056572;28;20464;-79
2021/09/24 10:39:48;;;;;;;2.30;1.33;;;17.70;94.80;;;;;;5072858;28;20927;-79
2021/09/24 10:42:23;;;;;;;1.73;1.50;;;17.70;94.90;;;;;;5072453;28;20789;-79
2021/09/24 10:45:12;;;;;;;2.60;1.50;;;17.70;94.80;;;;;;5071892;28;20468;-80
2021/09/24 10:47:50;;;;;;;2.23;1.40;;;17.60;95.00;;;;;;5075264;28;20413;-79
2021/09/24 10:50:36;;;;;;;2.10;1.50;;;17.70;95.30;;;;;;5053511;28;20422;-80
2021/09/24 10:53:11;;;;;;;1.27;1.20;;;17.70;95.30;;;;;;5054826;28;20460;-80
2021/09/24 10:55:38;;;;;;;5.33;1.90;;;17.70;94.80;;;;;;5053650;28;20424;-81
2021/09/24 10:58:03;;;;;;;6.70;1.50;;;17.80;94.90;;;;;;5052536;28;20464;-80
2021/09/24 11:00:31;;;;;;;1.97;1.60;;;17.90;94.90;;;;;;5052532;28;20422;-80
2021/09/24 11:03:09;;;;;;;1.93;1.57;;;18.00;94.80;;;;;;5052686;28;20772;-80
2021/09/24 11:06:01;;;;;;;4.17;1.40;;;18.20;94.40;;;;;;5053216;28;20422;-79
2021/09/24 11:08:33;;;;;;;4.77;2.00;;;18.40;94.70;;;;;;5052148;28;20414;-78
2021/09/24 11:11:22;;;;;;;2.10;1.40;;;18.50;93.40;;;;;;5052044;28;20769;-83
2021/09/24 11:13:53;;;;;;;11.33;2.20;;;18.60;92.80;;;;;;5052667;28;20496;-80
2021/09/24 11:16:24;;;;;;;2.50;1.30;;;18.50;92.90;;;;;;5051130;28;20418;-78
2021/09/24 11:18:55;;;;;;;3.83;1.47;;;18.50;93.40;;;;;;5051815;28;20410;-81
2021/09/24 11:21:38;;;;;;;3.13;1.43;;;18.50;92.50;;;;;;5053226;28;20468;-84
2021/09/24 11:24:24;;;;;;;1.30;1.20;;;18.40;93.00;;;;;;5051340;28;20434;-79
2021/09/24 11:26:58;;;;;;;3.70;1.30;;;18.40;92.80;;;;;;5049855;28;20414;-81
2021/09/24 11:29:27;;;;;;;1.53;1.50;;;18.40;93.30;;;;;;5051146;28;20500;-79
2021/09/24 11:31:53;;;;;;;7.27;1.63;;;18.40;93.60;;;;;;5052853;28;20548;-80
2021/09/24 11:34:38;;;;;;;1.63;1.33;;;18.40;93.30;;;;;;5050941;28;20478;-79
2021/09/24 11:37:17;;;;;;;2.10;1.40;;;18.50;93.50;;;;;;5052550;28;20202;-80
2021/09/24 11:39:44;;;;;;;6.07;2.10;;;18.50;93.90;;;;;;5051025;28;20480;-80
2021/09/24 11:42:14;;;;;;;3.53;1.70;;;18.60;94.20;;;;;;5052050;28;20418;-79
2021/09/24 11:44:44;;;;;;;5.30;2.10;;;18.70;94.50;;;;;;5052009;28;20466;-79
2021/09/24 11:47:32;;;;;;;1.70;1.50;;;18.80;93.40;;;;;;5057348;28;20820;-79
2021/09/24 11:50:06;;;;;;;3.40;1.50;;;18.90;93.60;;;;;;5071509;28;20424;-79
2021/09/24 11:52:44;;;;;;;2.47;1.70;;;18.90;93.10;;;;;;5083807;28;20833;-79
2021/09/24 11:55:15;;;;;;;1.63;1.50;;;18.80;92.20;;;;;;5081797;28;20417;-82
2021/09/24 11:57:53;;;;;;;1.53;1.43;;;18.80;92.80;;;;;;5084837;28;20408;-78
2021/09/24 12:00:18;;;;;;;1.70;1.30;;;18.70;92.60;;;;;;5093446;28;20542;-79
2021/09/24 12:02:44;;;;;;;1.80;1.30;;;18.70;92.70;;;;;;5084943;28;20863;-79
2021/09/24 12:05:09;;;;;;;1.87;1.60;;;18.70;92.70;;;;;;5082474;28;20174;-79
2021/09/24 12:07:36;;;;;;;1.83;1.50;;;18.70;92.80;;;;;;5080792;28;20265;-80
2021/09/24 12:10:04;;;;;;;3.00;1.50;;;18.70;92.80;;;;;;5077202;28;20182;-78
2021/09/24 12:12:30;;;;;;;4.37;2.07;;;18.70;93.00;;;;;;5077527;28;20509;-80
2021/09/24 12:15:02;;;;;;;9.23;1.90;;;18.70;93.20;;;;;;5080778;28;20451;-79
2021/09/24 12:17:30;;;;;;;1.73;1.50;;;18.60;93.00;;;;;;5091750;28;20163;-80
2021/09/24 12:20:00;;;;;;;3.50;2.07;;;18.50;93.60;;;;;;5095112;28;20417;-79
2021/09/24 12:22:26;;;;;;;1.70;1.60;;;18.50;94.40;;;;;;5094615;28;20991;-79
2021/09/24 12:24:52;;;;;;;3.43;1.73;;;18.50;94.20;;;;;;5093331;28;20408;-78
2021/09/24 12:27:29;;;;;;;3.43;1.30;;;18.40;94.50;;;;;;5094620;28;20419;-80
2021/09/24 12:30:11;;;;;;;6.03;2.10;;;18.50;94.60;;;;;;5088134;28;20470;-78
2021/09/24 12:32:37;;;;;;;5.33;2.10;;;18.70;95.10;;;;;;5085568;28;20883;-80
2021/09/24 12:35:04;;;;;;;3.57;1.60;;;18.90;94.90;;;;;;5074662;28;20699;-77
2021/09/24 12:37:43;;;;;;;3.33;2.00;;;19.00;94.40;;;;;;5076000;28;20174;-85
2021/09/24 12:40:11;;;;;;;4.83;1.70;;;19.10;94.80;;;;;;5090970;28;20775;-78
2021/09/24 12:42:48;;;;;;;3.47;1.57;;;19.00;94.30;;;;;;5084490;28;20444;-79
2021/09/24 12:45:28;;;;;;;8.90;2.57;;;19.00;95.10;;;;;;5090904;28;20804;-78
2021/09/24 12:48:05;;;;;;;2.47;2.00;;;19.00;95.20;;;;;;5075656;28;20420;-78
2021/09/24 12:50:31;;;;;;;3.20;2.20;;;18.90;94.90;;;;;;5079842;28;20412;-77